Time;durP1;ratioP1;P1;durP2;ratioP2;P2;SDS_P1;SDS_P2;PMS_P1;PMS_P2;Temp;Humidity;BMP_temperature;BMP_pressure;BME280_temperature;BME280_humidity;BME280_pressure;Samples;Min_cycle;Max_cycle;Signal;HPM_P1;HPM_P2
2023/12/05 00:02:15;;;;;;;;;;;11.40;40.80;;;11.68;43.86;99264.53;5074271;28;19931;-37
2023/12/05 00:04:43;;;;;;;;;;;11.50;40.70;;;11.79;43.33;99255.63;5078118;28;19928;-37
2023/12/05 00:07:11;;;;;;;;;;;11.60;40.50;;;12.06;43.32;99260.97;5075699;28;20437;-37
2023/12/05 00:09:39;;;;;;;;;;;11.80;40.20;;;12.28;42.57;99253.94;5075697;28;19924;-36
2023/12/05 00:12:08;;;;;;;;;;;12.00;40.00;;;12.46;42.13;99249.88;5077612;28;19925;-36
2023/12/05 00:14:35;;;;;;;;;;;12.20;39.60;;;12.61;41.30;99251.41;5074867;28;19924;-35
2023/12/05 00:17:05;;;;;;;;;;;12.30;39.30;;;12.60;41.48;99249.63;5074787;28;19928;-36
2023/12/05 00:19:33;;;;;;;;;;;12.40;39.20;;;12.65;41.85;99245.94;5073528;28;20018;-37
2023/12/05 00:22:01;;;;;;;;;;;12.40;39.00;;;12.65;41.46;99248.47;5073905;28;20363;-36
2023/12/05 00:24:28;;;;;;;;;;;12.50;39.00;;;12.70;41.45;99246.44;5072890;28;19931;-37
2023/12/05 00:26:56;;;;;;;;;;;12.50;38.90;;;12.69;41.94;99243.03;5081187;28;19928;-36
2023/12/05 00:29:24;;;;;;;;;;;12.50;38.90;;;12.68;41.21;99243.75;5073200;28;20379;-36
2023/12/05 00:31:52;;;;;;;;;;;12.50;38.90;;;12.67;41.56;99241.97;5073340;28;19930;-36
2023/12/05 00:34:22;;;;;;;;;;;12.50;38.90;;;12.66;41.87;99240.19;5073295;28;19925;-36
2023/12/05 00:36:50;;;;;;;;;;;12.50;39.00;;;12.67;42.10;99241.97;5073677;28;19985;-36
2023/12/05 00:39:18;;;;;;;;;;;12.50;39.00;;;12.66;41.57;99237.69;5072842;28;19925;-36
2023/12/05 00:41:47;;;;;;;;;;;12.50;39.10;;;12.61;42.37;99231.31;5073433;28;19946;-36
2023/12/05 00:44:14;;;;;;;;;;;12.50;39.10;;;12.58;42.06;99238.56;5072465;28;20015;-36
2023/12/05 00:46:42;;;;;;;;;;;12.40;39.10;;;12.55;41.25;99232.31;5072772;28;19978;-36
2023/12/05 00:49:11;;;;;;;;;;;12.40;39.30;;;12.51;41.76;99233.66;5072738;28;19959;-36
2023/12/05 00:51:40;;;;;;;;;;;12.30;39.30;;;12.51;42.14;99228.63;5074064;28;19924;-36
2023/12/05 00:54:08;;;;;;;;;;;12.30;39.30;;;12.47;41.70;99236.59;5073066;28;19978;-36
2023/12/05 00:56:36;;;;;;;;;;;12.30;39.40;;;12.43;42.25;99232.00;5073382;28;20003;-37
2023/12/05 00:59:04;;;;;;;;;;;12.20;39.40;;;12.35;41.71;99231.22;5073012;28;19934;-37
2023/12/05 01:01:32;;;;;;;;;;;12.20;39.60;;;12.29;42.86;99219.69;5073695;28;19976;-37
2023/12/05 01:04:00;;;;;;;;;;;12.10;39.60;;;12.28;42.49;99227.94;5073644;28;19946;-36
2023/12/05 01:06:28;;;;;;;;;;;12.10;39.70;;;12.32;42.11;99235.06;5075413;28;19993;-36
2023/12/05 01:08:57;;;;;;;;;;;12.10;39.80;;;12.31;42.47;99238.31;5075968;28;19925;-37
2023/12/05 01:11:25;;;;;;;;;;;12.10;39.80;;;12.30;43.09;99236.53;5075044;28;19931;-36
2023/12/05 01:13:53;;;;;;;;;;;12.10;39.90;;;12.28;42.43;99230.47;5072413;28;19939;-36
2023/12/05 01:16:21;;;;;;;;;;;12.10;39.90;;;12.22;42.28;99227.34;5073154;28;19930;-36
2023/12/05 01:18:49;;;;;;;;;;;12.00;39.80;;;12.23;42.46;99230.00;5072708;28;20447;-35
2023/12/05 01:21:17;;;;;;;;;;;12.00;39.90;;;12.22;42.68;99232.34;5072883;28;19981;-35
2023/12/05 01:23:45;;;;;;;;;;;12.00;40.00;;;12.19;43.15;99227.03;5063863;28;20095;-35
2023/12/05 01:26:14;;;;;;;;;;;12.00;40.00;;;12.21;43.15;99235.59;5079344;28;19924;-36
2023/12/05 01:28:42;;;;;;;;;;;12.00;40.00;;;12.21;42.45;99235.59;5072418;28;19970;-36
2023/12/05 01:31:10;;;;;;;;;;;12.00;40.10;;;12.22;42.43;99232.34;5072658;28;19924;-37
2023/12/05 01:33:37;;;;;;;;;;;12.00;40.10;;;12.21;43.13;99225.56;5072280;28;20371;-36
2023/12/05 01:36:09;;;;;;;;;;;12.00;40.00;;;12.23;42.36;99224.09;5076205;28;19924;-37
2023/12/05 01:38:37;;;;;;;;;;;12.00;40.00;;;12.25;43.16;99227.66;5074681;28;19952;-36
2023/12/05 01:41:07;;;;;;;;;;;12.10;40.00;;;12.27;42.71;99226.16;5074394;28;19978;-34
2023/12/05 01:43:36;;;;;;;;;;;12.10;39.90;;;12.27;43.16;99221.13;5075180;28;19929;-37
2023/12/05 01:46:05;;;;;;;;;;;12.10;39.80;;;12.31;42.88;99223.25;5073940;28;19924;-37
2023/12/05 01:48:33;;;;;;;;;;;12.10;39.80;;;12.35;43.11;99220.28;5072432;28;19972;-37
2023/12/05 01:51:01;;;;;;;;;;;12.10;39.80;;;12.38;42.74;99215.59;5072191;28;20019;-36
2023/12/05 01:53:29;;;;;;;;;;;12.20;39.80;;;12.44;42.87;99216.19;5071911;28;19924;-35
2023/12/05 01:55:57;;;;;;;;;;;12.20;39.70;;;12.47;42.85;99211.47;5072172;28;20022;-36
2023/12/05 01:58:25;;;;;;;;;;;12.20;39.60;;;12.48;42.69;99218.28;5063902;28;20216;-37
2023/12/05 02:00:54;;;;;;;;;;;12.30;39.70;;;12.51;42.25;99218.59;5072259;28;19978;-36
2023/12/05 02:03:24;;;;;;;;;;;12.30;39.60;;;12.52;42.32;99207.78;5071922;28;19928;-36
2023/12/05 02:05:53;;;;;;;;;;;12.30;39.50;;;12.41;42.08;99190.75;5071981;28;19925;-37
2023/12/05 02:08:21;;;;;;;;;;;12.30;39.50;;;12.39;41.71;99184.72;5072368;28;20023;-37
2023/12/05 02:10:49;;;;;;;;;;;12.30;39.50;;;12.48;41.96;99208.22;5072182;28;19925;-35
2023/12/05 02:13:17;;;;;;;;;;;12.30;39.50;;;12.53;42.78;99214.59;5072346;28;19924;-36
2023/12/05 02:15:46;;;;;;;;;;;12.30;39.50;;;12.49;42.18;99210.00;5072425;28;20369;-36
2023/12/05 02:18:17;;;;;;;;;;;12.30;39.50;;;12.44;42.52;99206.16;5072353;28;20015;-35
2023/12/05 02:20:49;;;;;;;;;;;12.30;39.60;;;12.38;41.96;99205.53;5071949;28;19982;-36
2023/12/05 02:23:27;;;;;;;;;;;12.20;39.60;;;12.36;42.49;99207.00;5071505;28;19925;-35
2023/12/05 02:26:07;;;;;;;;;;;12.20;39.70;;;12.13;42.93;99176.22;5071767;28;19970;-36
2023/12/05 02:28:37;;;;;;;;;;;12.10;39.80;;;12.25;42.25;99200.03;5091608;22;19935;-36
2023/12/05 02:31:05;;;;;;;;;;;12.10;39.90;;;12.19;43.02;99194.41;5091082;28;19930;-36
2023/12/05 02:33:33;;;;;;;;;;;12.00;39.90;;;12.18;43.26;99195.13;5079660;28;19924;-35
2023/12/05 02:36:04;;;;;;;;;;;12.00;40.00;;;12.16;43.11;99197.47;5071220;28;19928;-36
2023/12/05 02:38:36;;;;;;;;;;;12.00;40.10;;;12.15;42.69;99189.78;5068381;28;19924;-36
2023/12/05 02:41:07;;;;;;;;;;;11.90;40.10;;;12.09;42.98;99190.94;5109004;28;19927;-35
2023/12/05 02:43:39;;;;;;;;;;;11.90;40.20;;;12.07;42.94;99192.44;5089819;28;19929;-36
2023/12/05 02:46:08;;;;;;;;;;;11.90;40.30;;;11.93;43.08;99172.59;5092785;28;19924;-36
2023/12/05 02:48:37;;;;;;;;;;;11.90;40.40;;;11.99;42.97;99188.28;5086765;28;19928;-34
2023/12/05 02:51:05;;;;;;;;;;;11.80;40.40;;;11.99;43.52;99183.25;5111697;28;19924;-34
2023/12/05 02:53:33;;;;;;;;;;;11.80;40.50;;;11.98;43.58;99183.97;5100166;28;19942;-34
2023/12/05 02:56:01;;;;;;;;;;;11.80;40.50;;;12.00;43.37;99180.00;5099186;28;20016;-34
2023/12/05 02:58:29;;;;;;;;;;;11.80;40.50;;;11.98;43.23;99176.44;5078693;28;19924;-34
2023/12/05 03:00:58;;;;;;;;;;;11.70;40.50;;;11.97;42.92;99183.81;5103074;28;19924;-34
2023/12/05 03:03:26;;;;;;;;;;;11.70;40.50;;;12.00;43.55;99187.53;5086329;28;20466;-33
2023/12/05 03:05:54;;;;;;;;;;;11.70;40.50;;;12.02;43.25;99185.16;5096331;28;19951;-34
2023/12/05 03:08:22;;;;;;;;;;;11.80;40.60;;;12.02;43.05;99183.53;5096510;28;20330;-34
2023/12/05 03:10:50;;;;;;;;;;;11.80;40.60;;;11.78;43.36;99140.94;5085395;28;19924;-34
2023/12/05 03:13:26;;;;;;;;;;;11.80;40.50;;;12.08;43.93;99179.13;5110789;28;19935;-34
2023/12/05 03:15:54;;;;;;;;;;;11.80;40.50;;;12.12;43.11;99179.47;5110021;28;20405;-33
2023/12/05 03:18:24;;;;;;;;;;;11.90;40.40;;;12.15;42.66;99179.75;5106485;28;19924;-34
2023/12/05 03:20:52;;;;;;;;;;;11.90;40.40;;;12.18;43.56;99175.03;5084697;28;20050;-35
2023/12/05 03:23:20;;;;;;;;;;;11.90;40.50;;;12.24;43.25;99175.66;5090873;28;19924;-36
2023/12/05 03:25:48;;;;;;;;;;;12.00;40.30;;;12.24;43.40;99170.63;5102993;28;19923;-34
2023/12/05 03:28:16;;;;;;;;;;;12.00;40.20;;;12.29;42.54;99169.47;5102332;28;19931;-34
2023/12/05 03:30:44;;;;;;;;;;;12.10;40.10;;;12.33;42.61;99161.50;5085279;28;20022;-36
2023/12/05 03:33:12;;;;;;;;;;;12.10;40.00;;;12.35;42.80;99160.03;5097779;28;20408;-36
2023/12/05 03:35:41;;;;;;;;;;;12.10;40.00;;;12.35;42.86;99165.03;5098689;28;20379;-35
2023/12/05 03:38:09;;;;;;;;;;;12.10;40.00;;;12.33;43.07;99161.50;5100108;28;19943;-35
2023/12/05 03:40:37;;;;;;;;;;;12.20;40.00;;;12.37;42.28;99158.56;5097652;28;19937;-36
2023/12/05 03:43:05;;;;;;;;;;;12.20;40.00;;;12.38;42.38;99156.22;5114536;28;19930;-36
2023/12/05 03:45:33;;;;;;;;;;;12.20;40.00;;;12.41;42.37;99160.63;5073818;28;19991;-36
2023/12/05 03:48:01;;;;;;;;;;;12.20;39.90;;;12.39;43.13;99154.59;5089062;28;20014;-36
2023/12/05 03:50:29;;;;;;;;;;;12.20;39.90;;;12.37;42.15;99153.53;5107768;28;20341;-36
2023/12/05 03:52:58;;;;;;;;;;;12.20;39.90;;;12.35;43.14;99150.88;5073620;28;20028;-36
2023/12/05 03:55:26;;;;;;;;;;;12.20;40.00;;;12.34;43.34;99149.09;5098829;28;19930;-36
2023/12/05 03:57:54;;;;;;;;;;;12.20;40.00;;;12.35;42.70;99155.00;5103740;28;19986;-34
2023/12/05 04:00:22;;;;;;;;;;;12.10;40.00;;;12.34;43.02;99160.75;5114036;28;19927;-36
2023/12/05 04:02:49;;;;;;;;;;;12.10;40.00;;;12.30;42.59;99164.59;5097204;28;19924;-34
2023/12/05 04:05:17;;;;;;;;;;;12.10;40.00;;;12.30;43.40;99161.19;5088647;28;19924;-34
2023/12/05 04:07:45;;;;;;;;;;;12.10;40.00;;;12.30;42.82;99161.19;5114643;28;19931;-35
2023/12/05 04:10:14;;;;;;;;;;;12.10;40.10;;;12.26;42.55;99154.09;5097317;28;19931;-36
2023/12/05 04:12:42;;;;;;;;;;;12.10;40.10;;;12.25;42.85;99157.34;5087484;28;19960;-36
2023/12/05 04:15:10;;;;;;;;;;;12.10;40.10;;;12.25;42.93;99157.34;5107128;28;20305;-36
2023/12/05 04:17:39;;;;;;;;;;;12.10;40.20;;;12.23;42.75;99153.78;5089707;28;20373;-36
2023/12/05 04:20:09;;;;;;;;;;;12.00;40.20;;;12.21;43.01;99156.13;5088639;28;19929;-36
2023/12/05 04:22:37;;;;;;;;;;;12.00;40.20;;;12.19;43.11;99166.78;5098386;28;19970;-36
2023/12/05 04:25:06;;;;;;;;;;;12.00;40.30;;;12.17;42.93;99158.19;5089355;28;19930;-36
2023/12/05 04:27:35;;;;;;;;;;;12.00;40.30;;;12.17;43.03;99164.13;5088558;28;20030;-36
2023/12/05 04:30:04;;;;;;;;;;;12.00;40.40;;;12.15;43.39;99159.66;5089989;28;19924;-36
2023/12/05 04:32:31;;;;;;;;;;;12.00;40.40;;;12.14;42.98;99157.91;5087507;28;19924;-36
2023/12/05 04:34:59;;;;;;;;;;;11.90;40.30;;;12.13;43.08;99156.13;5082311;28;19924;-36
2023/12/05 04:37:27;;;;;;;;;;;11.90;40.40;;;12.11;42.70;99152.56;5089557;28;19923;-36
2023/12/05 04:39:56;;;;;;;;;;;11.90;40.40;;;12.12;43.85;99154.34;5096113;28;20406;-36
2023/12/05 04:42:24;;;;;;;;;;;11.90;41.10;;;12.07;43.76;99152.28;5103327;28;19924;-35
2023/12/05 04:44:53;;;;;;;;;;;11.90;40.50;;;12.09;43.09;99155.81;5113400;28;19986;-36
2023/12/05 04:47:21;;;;;;;;;;;11.90;40.50;;;12.11;42.99;99157.59;5112982;28;20386;-36
2023/12/05 04:49:49;;;;;;;;;;;11.90;40.60;;;12.11;43.71;99158.47;5085715;28;19928;-36
2023/12/05 04:52:16;;;;;;;;;;;11.90;40.60;;;12.11;43.41;99152.56;5108138;28;19950;-36
2023/12/05 04:54:44;;;;;;;;;;;11.90;40.50;;;12.14;43.39;99152.91;5086508;28;19924;-36
2023/12/05 04:57:12;;;;;;;;;;;11.90;40.50;;;12.14;42.91;99152.91;5097943;28;20276;-36
2023/12/05 04:59:40;;;;;;;;;;;11.90;40.60;;;12.12;43.80;99159.38;5079879;28;20041;-36
2023/12/05 05:02:11;;;;;;;;;;;11.90;40.50;;;12.12;43.56;99156.84;5072089;28;19928;-36
2023/12/05 05:04:40;;;;;;;;;;;11.90;40.50;;;12.12;42.97;99154.34;5098922;28;20005;-36
2023/12/05 05:07:08;;;;;;;;;;;11.90;40.50;;;12.12;43.52;99154.34;5106333;28;19924;-36
2023/12/05 05:09:39;;;;;;;;;;;11.90;40.50;;;12.13;43.04;99148.59;5089068;28;19924;-36
2023/12/05 05:12:08;;;;;;;;;;;11.90;40.50;;;12.13;43.86;99151.13;5104832;28;20379;-36
2023/12/05 05:14:36;;;;;;;;;;;11.90;40.40;;;12.14;43.68;99151.25;5104201;28;20387;-36
2023/12/05 05:17:07;;;;;;;;;;;11.90;40.50;;;12.14;43.53;99150.38;5104336;28;19924;-36
2023/12/05 05:19:36;;;;;;;;;;;11.90;40.40;;;12.16;43.44;99156.41;5095715;28;19934;-36
2023/12/05 05:22:04;;;;;;;;;;;11.90;40.40;;;12.17;43.54;99153.19;5081061;28;20288;-36
2023/12/05 05:24:32;;;;;;;;;;;12.00;40.50;;;12.19;43.74;99146.69;5094191;28;19932;-36
2023/12/05 05:27:00;;;;;;;;;;;12.00;40.50;;;12.20;43.23;99153.50;5112169;28;20390;-36
2023/12/05 05:29:28;;;;;;;;;;;12.00;40.50;;;12.23;42.98;99158.81;5094823;28;19936;-36
2023/12/05 05:31:56;;;;;;;;;;;12.00;40.40;;;12.24;43.63;99155.56;5112661;28;19978;-36
2023/12/05 05:34:24;;;;;;;;;;;12.00;40.40;;;12.27;42.82;99145.81;5086763;28;20432;-36
2023/12/05 05:36:54;;;;;;;;;;;12.00;40.30;;;12.26;43.44;99144.06;5104452;28;19930;-36
2023/12/05 05:39:22;;;;;;;;;;;12.00;40.30;;;12.26;43.00;99155.00;5101382;28;20295;-36
2023/12/05 05:41:50;;;;;;;;;;;12.10;40.40;;;12.25;43.73;99157.34;5089554;28;19935;-36
2023/12/05 05:44:18;;;;;;;;;;;12.10;40.40;;;12.27;43.56;99156.75;5105661;28;19924;-36
2023/12/05 05:46:46;;;;;;;;;;;12.10;40.30;;;12.29;43.25;99154.41;5072411;28;19924;-36
2023/12/05 05:49:14;;;;;;;;;;;12.10;40.30;;;12.30;42.69;99151.16;5080785;28;19924;-36
2023/12/05 05:51:42;;;;;;;;;;;12.10;40.30;;;12.29;43.01;99154.41;5095806;28;19978;-36
2023/12/05 05:54:11;;;;;;;;;;;12.10;40.30;;;12.28;43.42;99142.56;5088611;28;19928;-33
2023/12/05 05:56:39;;;;;;;;;;;12.10;40.40;;;12.29;43.46;99154.41;5095931;28;19967;-36
2023/12/05 05:59:07;;;;;;;;;;;12.10;40.30;;;12.29;42.78;99155.28;5112048;28;19931;-36
2023/12/05 06:01:35;;;;;;;;;;;12.10;40.30;;;12.33;43.47;99151.47;5105961;28;20019;-36
2023/12/05 06:04:03;;;;;;;;;;;12.10;40.30;;;12.29;43.12;99144.34;5085171;28;19930;-36
2023/12/05 06:06:32;;;;;;;;;;;12.10;40.30;;;12.32;43.18;99154.72;5104048;28;19971;-36
2023/12/05 06:09:00;;;;;;;;;;;12.10;40.30;;;12.27;43.06;99155.84;5103802;28;19979;-36
2023/12/05 06:11:29;;;;;;;;;;;12.10;40.30;;;12.30;43.22;99156.16;5112315;28;19923;-36
2023/12/05 06:13:57;;;;;;;;;;;12.10;40.30;;;12.31;42.99;99156.34;5101674;28;19932;-36
2023/12/05 06:16:25;;;;;;;;;;;12.10;40.30;;;12.31;42.78;99162.97;5112523;28;19928;-36
2023/12/05 06:18:54;;;;;;;;;;;12.10;40.30;;;12.29;43.61;99156.91;5092561;28;19924;-36
2023/12/05 06:21:22;;;;;;;;;;;12.10;40.30;;;12.29;43.14;99164.44;5105614;28;19924;-36
2023/12/05 06:23:50;;;;;;;;;;;12.10;40.40;;;12.30;43.25;99156.16;5097014;28;19989;-36
2023/12/05 06:26:19;;;;;;;;;;;12.10;40.40;;;12.29;42.71;99166.94;5095886;28;19946;-35
2023/12/05 06:28:48;;;;;;;;;;;12.10;40.40;;;12.27;42.85;99155.84;5082633;28;19924;-36
2023/12/05 06:31:16;;;;;;;;;;;12.10;40.40;;;12.28;42.79;99162.66;5083495;28;20015;-36
2023/12/05 06:33:45;;;;;;;;;;;12.10;40.50;;;12.25;43.18;99162.38;5083866;28;19924;-36
2023/12/05 06:36:13;;;;;;;;;;;12.10;40.50;;;12.25;43.74;99162.38;5083777;28;19925;-36
2023/12/05 06:38:41;;;;;;;;;;;12.00;40.50;;;12.24;43.76;99165.63;5075421;28;19925;-36
2023/12/05 06:41:09;;;;;;;;;;;12.00;40.50;;;12.23;43.89;99163.84;5082317;28;20581;-36
2023/12/05 06:43:37;;;;;;;;;;;12.00;40.50;;;12.21;43.73;99175.34;5074862;28;19930;-36
2023/12/05 06:46:07;;;;;;;;;;;12.00;40.60;;;12.18;43.33;99167.50;5081900;28;19924;-36
2023/12/05 06:48:35;;;;;;;;;;;12.00;40.60;;;12.21;43.33;99175.34;5084111;28;19935;-36
2023/12/05 06:51:04;;;;;;;;;;;12.00;40.60;;;12.16;43.23;99182.41;5075012;28;19924;-36
2023/12/05 06:53:32;;;;;;;;;;;12.00;40.60;;;12.17;43.16;99173.25;5074673;28;20455;-36
2023/12/05 06:56:06;;;;;;;;;;;12.00;40.60;;;12.16;43.15;99176.50;5074750;28;19924;-36
2023/12/05 06:58:34;;;;;;;;;;;11.90;40.60;;;12.16;43.41;99182.41;5074469;28;20386;-36
2023/12/05 07:01:02;;;;;;;;;;;12.00;40.70;;;12.17;43.58;99178.28;5074885;28;19925;-36
2023/12/05 07:03:31;;;;;;;;;;;12.00;40.80;;;12.17;43.46;99185.81;5074446;28;19929;-35
2023/12/05 07:06:10;;;;;;;;;;;11.90;40.70;;;12.16;43.85;99186.53;5074828;28;19989;-36
2023/12/05 07:08:39;;;;;;;;;;;12.00;40.80;;;12.17;44.05;99195.84;5094630;28;19930;-36
2023/12/05 07:11:07;;;;;;;;;;;12.00;40.80;;;12.15;43.68;99194.81;5087541;28;19924;-36
2023/12/05 07:13:35;;;;;;;;;;;12.00;40.80;;;12.17;43.68;99198.38;5084711;28;19934;-36
2023/12/05 07:16:06;;;;;;;;;;;12.00;40.70;;;12.16;44.14;99201.59;5082447;28;20389;-36
2023/12/05 07:18:36;;;;;;;;;;;12.00;40.80;;;12.16;43.26;99201.59;5074659;28;19924;-36
2023/12/05 07:21:05;;;;;;;;;;;12.00;40.70;;;12.18;43.46;99195.13;5082830;28;19924;-36
2023/12/05 07:23:33;;;;;;;;;;;12.00;40.70;;;12.18;43.26;99197.66;5072997;28;20350;-35
2023/12/05 07:26:01;;;;;;;;;;;12.00;40.70;;;12.18;43.63;99206.06;5074388;28;19931;-36
2023/12/05 07:28:29;;;;;;;;;;;12.00;40.70;;;12.21;43.47;99205.47;5084804;28;19924;-36
2023/12/05 07:30:56;;;;;;;;;;;12.00;40.70;;;12.15;43.39;99194.81;5074207;28;19924;-36
2023/12/05 07:33:24;;;;;;;;;;;12.00;40.70;;;12.21;43.13;99210.50;5073978;28;19970;-36
2023/12/05 07:35:54;;;;;;;;;;;12.00;40.70;;;12.23;43.75;99209.03;5082368;28;19978;-36
2023/12/05 07:38:22;;;;;;;;;;;12.00;40.70;;;12.24;43.28;99215.84;5082249;28;19924;-36
2023/12/05 07:40:50;;;;;;;;;;;12.00;40.70;;;12.23;43.23;99214.06;5073962;28;19931;-36
2023/12/05 07:43:18;;;;;;;;;;;12.00;40.60;;;12.23;43.12;99224.09;5073873;28;19925;-36
2023/12/05 07:45:46;;;;;;;;;;;12.00;40.60;;;12.25;43.54;99226.03;5073995;28;19924;-36
2023/12/05 07:48:13;;;;;;;;;;;12.00;40.70;;;12.26;43.56;99231.94;5073795;28;20350;-36
2023/12/05 07:50:41;;;;;;;;;;;12.10;40.70;;;12.25;44.02;99226.03;5082419;28;20014;-36
2023/12/05 07:53:11;;;;;;;;;;;12.00;40.70;;;12.28;44.05;99230.47;5073912;28;19924;-36
2023/12/05 07:55:38;;;;;;;;;;;12.00;40.60;;;12.28;43.93;99230.47;5084701;28;19931;-36
2023/12/05 07:58:05;;;;;;;;;;;12.00;40.70;;;12.28;43.36;99232.97;5079009;28;19925;-36
2023/12/05 08:00:34;;;;;;;;;;;12.10;40.70;;;12.27;43.51;99242.13;5073509;28;19971;-36
2023/12/05 08:03:02;;;;;;;;;;;12.10;40.70;;;12.29;43.51;99239.78;5079325;28;20442;-36
2023/12/05 08:05:30;;;;;;;;;;;12.10;40.70;;;12.31;43.25;99238.31;5075596;28;19971;-36
2023/12/05 08:07:58;;;;;;;;;;;12.10;40.70;;;12.30;43.91;99244.06;5073395;28;19925;-36
2023/12/05 08:10:27;;;;;;;;;;;12.10;40.70;;;12.30;44.01;99239.03;5081898;28;19925;-36
2023/12/05 08:12:55;;;;;;;;;;;12.10;40.70;;;12.30;43.45;99236.53;5073838;28;19931;-36
2023/12/05 08:15:23;;;;;;;;;;;12.10;40.70;;;12.30;43.96;99246.56;5073131;28;20367;-36
2023/12/05 08:17:51;;;;;;;;;;;12.10;40.70;;;12.30;43.23;99247.47;5073508;28;19951;-36
2023/12/05 08:20:19;;;;;;;;;;;12.10;40.70;;;12.31;43.94;99248.34;5081509;28;20023;-36
2023/12/05 08:22:46;;;;;;;;;;;12.10;40.70;;;12.31;43.32;99248.34;5090047;28;19977;-36
2023/12/05 08:25:14;;;;;;;;;;;12.10;40.60;;;12.32;43.33;99250.16;5073552;28;19924;-36
2023/12/05 08:27:44;;;;;;;;;;;12.10;40.70;;;12.32;43.99;99250.16;5084550;28;19925;-36
2023/12/05 08:30:13;;;;;;;;;;;12.10;40.70;;;12.31;43.87;99253.38;5093130;22;19931;-36
2023/12/05 08:32:41;;;;;;;;;;;12.10;40.70;;;12.30;43.16;99254.13;5084193;28;19968;-37
2023/12/05 08:35:10;;;;;;;;;;;12.10;40.60;;;12.30;43.63;99252.50;5093013;28;19985;-36
2023/12/05 08:37:38;;;;;;;;;;;12.10;40.70;;;12.31;43.40;99260.91;5092956;28;20268;-36
2023/12/05 08:40:08;;;;;;;;;;;12.10;40.70;;;12.32;43.97;99260.19;5092973;28;19930;-36
2023/12/05 08:42:36;;;;;;;;;;;12.10;40.70;;;12.31;43.83;99263.44;5074037;28;19929;-36
2023/12/05 08:45:06;;;;;;;;;;;12.10;40.70;;;12.31;43.04;99264.31;5072567;28;20437;-36
2023/12/05 08:47:34;;;;;;;;;;;12.10;40.70;;;12.30;43.38;99261.66;5073111;28;19931;-36
2023/12/05 08:50:02;;;;;;;;;;;12.10;40.70;;;12.33;43.84;99256.94;5072649;28;19924;-37
2023/12/05 08:52:30;;;;;;;;;;;12.10;40.70;;;12.29;43.07;99255.72;5072612;28;19963;-36
2023/12/05 08:55:00;;;;;;;;;;;12.10;40.70;;;12.32;43.20;99265.22;5072319;28;19925;-36
2023/12/05 08:57:28;;;;;;;;;;;12.10;40.70;;;12.32;43.91;99270.22;5072414;28;20449;-36
2023/12/05 08:59:55;;;;;;;;;;;12.10;40.70;;;12.26;42.98;99254.56;5072605;28;19924;-36
2023/12/05 09:02:25;;;;;;;;;;;12.10;40.70;;;12.26;44.02;99249.53;5072503;28;19928;-41
2023/12/05 09:04:52;;;;;;;;;;;12.10;40.70;;;12.34;43.97;99268.75;5072177;28;20455;-36
2023/12/05 09:07:21;;;;;;;;;;;12.10;40.80;;;12.35;43.06;99265.50;5072411;28;20019;-38
2023/12/05 09:09:49;;;;;;;;;;;12.10;40.80;;;12.30;43.17;99261.66;5064266;28;19924;-38
2023/12/05 09:12:17;;;;;;;;;;;12.10;40.80;;;12.27;43.35;99266.34;5072861;28;20441;-38
2023/12/05 09:14:44;;;;;;;;;;;12.10;40.80;;;12.34;43.42;99273.75;5072309;28;19932;-38
2023/12/05 09:17:12;;;;;;;;;;;12.10;40.90;;;12.34;43.76;99273.75;5072812;28;19924;-38
2023/12/05 09:19:41;;;;;;;;;;;12.10;40.90;;;12.32;43.60;99280.28;5072428;28;19924;-39
2023/12/05 09:22:09;;;;;;;;;;;12.10;41.00;;;12.32;43.78;99275.25;5072371;28;19979;-40
2023/12/05 09:24:37;;;;;;;;;;;12.10;41.00;;;12.30;43.69;99276.72;5072052;28;20153;-35
2023/12/05 09:27:05;;;;;;;;;;;12.10;41.10;;;12.31;43.63;99288.53;5072370;28;19968;-36
2023/12/05 09:29:33;;;;;;;;;;;12.10;41.20;;;12.30;43.93;99286.75;5071863;28;19977;-38
2023/12/05 09:32:16;;;;;;;;;;;12.10;41.20;;;12.30;44.07;99286.75;5072164;28;19928;-37
2023/12/05 09:34:46;;;;;;;;;;;12.10;41.20;;;12.31;43.54;99296.06;5071534;28;20043;-36
2023/12/05 09:37:14;;;;;;;;;;;12.10;41.30;;;12.33;44.05;99297.13;5072114;28;19931;-37
2023/12/05 09:39:42;;;;;;;;;;;12.10;41.30;;;12.32;44.46;99305.38;5071972;28;20011;-36
2023/12/05 09:42:11;;;;;;;;;;;12.10;41.30;;;12.31;44.33;99296.06;5071923;28;19924;-36
2023/12/05 09:44:39;;;;;;;;;;;12.10;41.30;;;12.33;43.84;99295.47;5071406;28;19929;-36
2023/12/05 09:47:07;;;;;;;;;;;12.10;41.30;;;12.31;44.39;99296.06;5071346;28;20023;-36
2023/12/05 09:49:35;;;;;;;;;;;12.10;41.30;;;12.33;44.46;99292.97;5071894;28;19950;-36
2023/12/05 09:52:05;;;;;;;;;;;12.10;41.30;;;12.36;44.33;99292.41;5080374;28;19924;-35
2023/12/05 09:54:33;;;;;;;;;;;12.10;41.40;;;12.14;43.64;99253.31;5071986;28;19924;-35
2023/12/05 09:57:01;;;;;;;;;;;12.10;41.40;;;12.37;44.61;99289.16;5071886;28;19925;-37
2023/12/05 09:59:29;;;;;;;;;;;12.10;41.40;;;12.36;44.02;99293.28;5071349;28;19925;-35
2023/12/05 10:01:59;;;;;;;;;;;12.10;41.40;;;12.37;43.84;99314.28;5072234;28;19925;-36
2023/12/05 10:04:28;;;;;;;;;;;12.20;41.50;;;12.30;43.79;99299.31;5071279;28;19932;-35
2023/12/05 10:06:57;;;;;;;;;;;12.20;41.50;;;12.38;44.49;99301.00;5071770;28;19972;-38
2023/12/05 10:09:27;;;;;;;;;;;12.20;41.50;;;12.39;44.35;99297.75;5071702;28;19931;-36
2023/12/05 10:11:55;;;;;;;;;;;12.20;41.60;;;12.39;44.80;99297.75;5071691;28;19925;-36
2023/12/05 10:14:23;;;;;;;;;;;12.20;41.60;;;12.33;44.56;99298.00;5071350;28;20080;-36
2023/12/05 10:16:51;;;;;;;;;;;12.20;41.60;;;12.37;44.83;99295.06;5071815;28;19924;-36
2023/12/05 10:19:19;;;;;;;;;;;12.30;41.70;;;12.40;44.47;99300.38;5071660;28;19931;-37
2023/12/05 10:21:50;;;;;;;;;;;12.30;41.70;;;12.45;44.18;99303.38;5071583;28;20010;-37
2023/12/05 10:24:17;;;;;;;;;;;12.30;41.70;;;12.48;44.29;99303.69;5071670;28;19931;-36
2023/12/05 10:26:47;;;;;;;;;;;12.30;41.80;;;12.47;44.76;99307.81;5071172;28;19931;-36
2023/12/05 10:29:15;;;;;;;;;;;12.30;41.70;;;12.48;44.97;99298.66;5071204;28;20004;-37
2023/12/05 10:31:43;;;;;;;;;;;12.30;41.80;;;12.49;44.51;99302.94;5071615;28;19925;-37
2023/12/05 10:34:11;;;;;;;;;;;12.30;41.80;;;12.51;44.53;99293.94;5071235;28;20024;-37
2023/12/05 10:36:39;;;;;;;;;;;12.30;42.50;;;12.47;44.64;99296.88;5071531;28;19931;-38
2023/12/05 10:39:07;;;;;;;;;;;12.30;41.90;;;12.50;44.60;99297.19;5071344;28;20311;-37
2023/12/05 10:41:35;;;;;;;;;;;12.30;41.90;;;12.47;44.01;99297.75;5071631;28;19928;-38
2023/12/05 10:44:04;;;;;;;;;;;12.30;42.00;;;12.47;44.76;99291.84;5071271;28;20415;-38
2023/12/05 10:46:35;;;;;;;;;;;12.30;42.10;;;12.46;44.34;99305.13;5071418;28;20019;-37
2023/12/05 10:49:05;;;;;;;;;;;12.30;42.10;;;12.44;44.51;99301.59;5071379;28;19986;-38
2023/12/05 10:51:33;;;;;;;;;;;12.30;42.10;;;12.44;44.86;99297.47;5071367;28;19955;-38
2023/12/05 10:54:01;;;;;;;;;;;12.30;42.20;;;12.21;44.52;99263.22;5071586;28;19928;-37
2023/12/05 10:56:29;;;;;;;;;;;12.20;42.10;;;12.41;44.73;99298.78;5071415;28;19932;-36
2023/12/05 10:58:58;;;;;;;;;;;12.20;42.10;;;12.39;45.53;99307.78;5064702;28;19931;-36
2023/12/05 11:01:28;;;;;;;;;;;12.20;42.10;;;12.36;44.52;99292.41;5075150;28;19970;-36
2023/12/05 11:04:00;;;;;;;;;;;12.20;42.20;;;12.38;45.40;99308.53;5074728;28;19978;-36
2023/12/05 11:06:28;;;;;;;;;;;12.20;42.10;;;12.37;44.80;99304.22;5074749;28;19928;-37
2023/12/05 11:08:56;;;;;;;;;;;12.20;42.20;;;12.36;44.93;99307.47;5066738;28;19924;-35
2023/12/05 11:11:25;;;;;;;;;;;12.20;42.30;;;12.33;45.08;99307.19;5074770;28;20007;-35
2023/12/05 11:13:52;;;;;;;;;;;12.20;42.30;;;12.33;44.94;99312.19;5074671;28;20280;-37
2023/12/05 11:16:23;;;;;;;;;;;12.10;42.20;;;12.31;44.71;99311.16;5074732;28;19924;-37
2023/12/05 11:18:55;;;;;;;;;;;12.10;42.20;;;12.19;44.75;99292.31;5074324;28;19986;-37
2023/12/05 11:21:33;;;;;;;;;;;12.10;42.20;;;12.17;44.80;99291.28;5074748;28;19971;-37
2023/12/05 11:24:08;;;;;;;;;;;12.10;42.30;;;12.33;45.21;99318.06;5066995;28;20361;-37